Time;durP1;ratioP1;P1;durP2;ratioP2;P2;SDS_P1;SDS_P2;PMS_P1;PMS_P2;Temp;Humidity;BMP_temperature;BMP_pressure;BME280_temperature;BME280_humidity;BME280_pressure;Samples;Min_cycle;Max_cycle;Signal;HPM_P1;HPM_P2
2021/12/11 00:01:40;;;;;;;75.10;38.92;;;;;;;;;;5069261;28;20543;-79
2021/12/11 00:04:13;;;;;;;69.35;37.42;;;;;;;;;;5045013;28;20040;-81
2021/12/11 00:06:42;;;;;;;75.15;38.30;;;;;;;;;;5055749;28;20083;-80
2021/12/11 00:09:13;;;;;;;72.95;40.03;;;;;;;;;;5074245;28;20471;-81
2021/12/11 00:11:41;;;;;;;76.53;40.13;;;;;;;;;;5063878;28;20024;-81
2021/12/11 00:14:09;;;;;;;74.82;40.40;;;;;;;;;;5062379;28;20420;-81
2021/12/11 00:16:36;;;;;;;72.97;41.35;;;;;;;;;;5069346;28;20170;-80
2021/12/11 00:19:10;;;;;;;82.22;41.63;;;;;;;;;;5056277;28;20036;-79
2021/12/11 00:21:37;;;;;;;75.70;42.13;;;;;;;;;;5069921;28;20477;-79
2021/12/11 00:24:08;;;;;;;80.93;42.85;;;;;;;;;;5072938;28;20025;-80
2021/12/11 00:26:40;;;;;;;90.07;44.22;;;;;;;;;;5071226;28;20020;-81
2021/12/11 00:29:07;;;;;;;87.40;42.85;;;;;;;;;;5067565;28;20025;-80
2021/12/11 00:31:36;;;;;;;76.18;42.45;;;;;;;;;;5057267;28;20051;-80
2021/12/11 00:34:03;;;;;;;79.15;41.38;;;;;;;;;;5074120;28;20514;-80
2021/12/11 00:36:32;;;;;;;70.03;38.38;;;;;;;;;;5063822;28;20094;-80
2021/12/11 00:39:18;;;;;;;75.88;41.88;;;;;;;;;;5063692;28;20074;-80
2021/12/11 00:41:51;;;;;;;79.57;47.25;;;;;;;;;;5055775;28;20524;-81
2021/12/11 00:44:18;;;;;;;97.95;58.65;;;;;;;;;;5041899;28;20051;-80
2021/12/11 00:46:44;;;;;;;100.10;68.22;;;;;;;;;;5048355;28;20039;-80
2021/12/11 00:49:12;;;;;;;109.45;69.00;;;;;;;;;;5069601;28;20029;-81
2021/12/11 00:51:39;;;;;;;98.47;69.35;;;;;;;;;;5072423;28;20039;-80
2021/12/11 00:54:05;;;;;;;111.63;76.45;;;;;;;;;;5047705;28;20044;-79
2021/12/11 00:56:36;;;;;;;104.03;65.57;;;;;;;;;;5072192;28;20059;-80
2021/12/11 00:59:08;;;;;;;95.00;62.53;;;;;;;;;;5071023;28;20028;-79
2021/12/11 01:01:39;;;;;;;93.27;58.37;;;;;;;;;;5060754;28;20069;-79
2021/12/11 01:04:12;;;;;;;76.40;46.22;;;;;;;;;;5072352;28;20043;-80
2021/12/11 01:06:49;;;;;;;74.93;46.60;;;;;;;;;;5067249;28;20093;-80
2021/12/11 01:09:24;;;;;;;65.70;40.40;;;;;;;;;;5073175;28;20028;-82
2021/12/11 01:11:59;;;;;;;67.20;39.60;;;;;;;;;;5067326;28;20060;-80
2021/12/11 01:14:39;;;;;;;68.07;41.47;;;;;;;;;;5054923;28;20476;-80
2021/12/11 01:17:10;;;;;;;64.87;39.87;;;;;;;;;;5053765;28;20033;-81
2021/12/11 01:19:49;;;;;;;63.40;36.43;;;;;;;;;;5054100;28;20488;-80
2021/12/11 01:22:32;;;;;;;66.07;37.87;;;;;;;;;;5056241;28;20056;-80
2021/12/11 01:24:59;;;;;;;58.03;32.67;;;;;;;;;;5071281;28;20021;-80
2021/12/11 01:27:26;;;;;;;56.90;31.00;;;;;;;;;;5069314;28;20025;-79
2021/12/11 01:29:56;;;;;;;58.17;29.73;;;;;;;;;;5061422;28;20037;-80
2021/12/11 01:32:23;;;;;;;52.33;28.97;;;;;;;;;;5064557;28;20354;-80
2021/12/11 01:34:50;;;;;;;64.10;30.57;;;;;;;;;;5056797;28;20071;-80
2021/12/11 01:37:20;;;;;;;44.03;23.23;;;;;;;;;;5060669;28;20041;-80
2021/12/11 01:39:48;;;;;;;43.87;23.87;;;;;;;;;;5072188;28;20047;-79
2021/12/11 01:42:17;;;;;;;52.30;25.53;;;;;;;;;;5042823;28;20075;-80
2021/12/11 01:44:44;;;;;;;42.37;22.70;;;;;;;;;;5055524;28;20029;-79
2021/12/11 01:47:13;;;;;;;45.33;21.90;;;;;;;;;;5063650;28;20467;-80
2021/12/11 01:49:41;;;;;;;37.43;20.23;;;;;;;;;;5070802;28;20157;-79
2021/12/11 01:52:11;;;;;;;42.80;20.77;;;;;;;;;;5071914;28;20275;-79
2021/12/11 01:54:40;;;;;;;43.93;22.17;;;;;;;;;;5046074;28;20034;-79
2021/12/11 01:57:11;;;;;;;47.63;21.23;;;;;;;;;;5062446;28;20112;-80
2021/12/11 01:59:39;;;;;;;35.57;19.23;;;;;;;;;;5060949;28;20435;-80
2021/12/11 02:02:10;;;;;;;40.47;20.33;;;;;;;;;;5058800;28;20534;-80
2021/12/11 02:04:39;;;;;;;41.10;18.60;;;;;;;;;;5067601;28;20017;-80
2021/12/11 02:07:25;;;;;;;58.80;20.80;;;;;;;;;;5067972;28;20175;-81
2021/12/11 02:09:57;;;;;;;37.00;17.07;;;;;;;;;;5039175;28;20044;-79
2021/12/11 02:12:29;;;;;;;49.77;17.97;;;;;;;;;;5064760;28;20024;-80
2021/12/11 02:14:56;;;;;;;39.27;16.90;;;;;;;;;;5072058;28;20024;-81
2021/12/11 02:17:29;;;;;;;45.60;19.50;;;;;;;;;;5070860;28;20108;-82
2021/12/11 02:19:57;;;;;;;46.00;19.47;;;;;;;;;;5058229;28;20124;-79
2021/12/11 02:22:28;;;;;;;46.10;18.40;;;;;;;;;;5068377;28;20099;-81
2021/12/11 02:24:58;;;;;;;46.03;16.37;;;;;;;;;;5078258;28;20024;-80
2021/12/11 02:27:27;;;;;;;48.50;18.03;;;;;;;;;;5061645;28;20383;-80
2021/12/11 02:29:56;;;;;;;37.73;16.37;;;;;;;;;;5080017;28;20027;-80
2021/12/11 02:32:32;;;;;;;36.97;17.27;;;;;;;;;;5074245;28;20039;-81
2021/12/11 02:35:02;;;;;;;44.03;16.73;;;;;;;;;;5057911;28;20025;-81
2021/12/11 02:37:38;;;;;;;48.40;19.67;;;;;;;;;;5039063;28;20056;-79
2021/12/11 02:40:08;;;;;;;39.33;16.73;;;;;;;;;;5067590;28;20076;-80
2021/12/11 02:42:49;;;;;;;36.57;14.90;;;;;;;;;;5067231;28;20017;-79
2021/12/11 02:45:23;;;;;;;34.60;15.80;;;;;;;;;;5070154;28;20467;-79
2021/12/11 02:47:52;;;;;;;36.80;15.53;;;;;;;;;;5045562;28;20028;-81
2021/12/11 02:50:26;;;;;;;35.50;13.87;;;;;;;;;;5061118;28;20028;-79
2021/12/11 02:52:59;;;;;;;31.27;13.80;;;;;;;;;;5069694;28;20107;-80
2021/12/11 02:55:29;;;;;;;43.95;15.75;;;;;;;;;;5059356;28;20048;-80
2021/12/11 02:58:06;;;;;;;50.33;15.52;;;;;;;;;;5034098;28;20035;-81
2021/12/11 03:00:37;;;;;;;43.83;14.95;;;;;;;;;;5070367;28;20028;-81
2021/12/11 03:03:06;;;;;;;34.58;14.30;;;;;;;;;;5060651;28;20033;-80
2021/12/11 03:05:40;;;;;;;45.83;18.08;;;;;;;;;;5061955;28;20068;-82
2021/12/11 03:08:08;;;;;;;54.72;20.02;;;;;;;;;;5054376;28;20031;-80
2021/12/11 03:10:35;;;;;;;48.00;19.60;;;;;;;;;;5057966;28;20029;-80
2021/12/11 03:13:04;;;;;;;53.08;19.58;;;;;;;;;;5059016;28;20033;-79
2021/12/11 03:15:30;;;;;;;53.25;22.20;;;;;;;;;;5077419;28;20106;-80
2021/12/11 03:17:56;;;;;;;65.68;23.60;;;;;;;;;;5078206;28;20036;-79
2021/12/11 03:20:23;;;;;;;58.05;22.63;;;;;;;;;;5061619;28;20480;-80
2021/12/11 03:22:50;;;;;;;47.75;21.15;;;;;;;;;;5052977;28;20079;-80
2021/12/11 03:25:21;;;;;;;56.72;20.77;;;;;;;;;;5038909;28;20029;-80
2021/12/11 03:27:48;;;;;;;46.70;20.10;;;;;;;;;;5066551;28;20028;-80
2021/12/11 03:30:20;;;;;;;37.67;17.85;;;;;;;;;;5062294;28;20029;-79
2021/12/11 03:32:47;;;;;;;35.40;17.48;;;;;;;;;;5070591;28;20044;-79
2021/12/11 03:35:13;;;;;;;52.10;22.25;;;;;;;;;;5069795;28;20032;-79
2021/12/11 03:37:41;;;;;;;42.20;16.33;;;;;;;;;;5073807;28;20043;-79
2021/12/11 03:40:08;;;;;;;48.97;20.88;;;;;;;;;;5069135;28;20025;-78
2021/12/11 03:42:36;;;;;;;34.75;14.75;;;;;;;;;;5070968;28;20048;-80
2021/12/11 03:45:06;;;;;;;31.50;14.27;;;;;;;;;;5063183;28;20039;-80
2021/12/11 03:47:36;;;;;;;28.88;13.05;;;;;;;;;;5045303;28;20080;-80
2021/12/11 03:50:04;;;;;;;44.13;15.23;;;;;;;;;;5060535;28;20032;-81
2021/12/11 03:52:30;;;;;;;38.35;17.30;;;;;;;;;;5056272;28;20024;-80
2021/12/11 03:55:00;;;;;;;35.03;13.75;;;;;;;;;;5069567;28;20020;-80
2021/12/11 03:57:30;;;;;;;35.13;13.57;;;;;;;;;;5059254;28;20029;-80
2021/12/11 03:59:57;;;;;;;27.35;11.57;;;;;;;;;;5055408;28;20025;-80
2021/12/11 04:02:29;;;;;;;34.90;11.00;;;;;;;;;;5048793;28;20414;-81
2021/12/11 04:04:57;;;;;;;35.35;11.93;;;;;;;;;;5062199;28;20016;-81
2021/12/11 04:07:27;;;;;;;40.90;14.10;;;;;;;;;;5064740;28;20490;-79
2021/12/11 04:09:54;;;;;;;41.40;14.00;;;;;;;;;;5074715;28;20025;-81
2021/12/11 04:12:21;;;;;;;43.83;14.23;;;;;;;;;;5072067;28;20487;-81
2021/12/11 04:14:49;;;;;;;49.10;15.80;;;;;;;;;;5069873;28;20042;-81
2021/12/11 04:17:18;;;;;;;63.80;17.77;;;;;;;;;;5071242;28;20032;-81
2021/12/11 04:19:45;;;;;;;45.08;16.10;;;;;;;;;;5069378;28;20040;-81
2021/12/11 04:22:15;;;;;;;55.92;15.85;;;;;;;;;;5052348;28;20025;-80
2021/12/11 04:24:43;;;;;;;52.47;15.15;;;;;;;;;;5046960;28;20471;-81
2021/12/11 04:27:12;;;;;;;57.70;15.65;;;;;;;;;;5062156;28;20047;-81
2021/12/11 04:29:39;;;;;;;50.47;16.90;;;;;;;;;;5075560;28;20415;-80
2021/12/11 04:32:07;;;;;;;52.95;15.65;;;;;;;;;;5067156;28;20456;-81
2021/12/11 04:34:36;;;;;;;46.78;15.43;;;;;;;;;;5062343;28;20063;-80
2021/12/11 04:37:11;;;;;;;49.75;16.52;;;;;;;;;;5062289;28;20056;-79
2021/12/11 04:39:40;;;;;;;57.03;16.73;;;;;;;;;;5060336;28;20061;-79
2021/12/11 04:42:28;;;;;;;58.63;16.40;;;;;;;;;;5041271;28;20021;-80
2021/12/11 04:44:54;;;;;;;39.55;16.63;;;;;;;;;;5059091;28;20498;-81
2021/12/11 04:50:00;;;;;;;48.97;16.33;;;;;;;;;;5058694;28;20033;-81
2021/12/11 04:52:53;;;;;;;46.75;16.30;;;;;;;;;;5064321;28;20162;-80
2021/12/11 04:58:06;;;;;;;48.95;14.98;;;;;;;;;;5065674;28;20033;-80
2021/12/11 05:01:13;;;;;;;44.13;14.43;;;;;;;;;;5069017;28;20039;-80
2021/12/11 05:11:51;;;;;;;45.72;14.35;;;;;;;;;;5063585;28;20537;-80
2021/12/11 05:14:19;;;;;;;40.78;15.25;;;;;;;;;;5061407;28;20031;-80
2021/12/11 05:16:46;;;;;;;46.78;13.98;;;;;;;;;;5063391;28;20033;-81
2021/12/11 05:19:13;;;;;;;38.60;13.35;;;;;;;;;;5062143;28;20031;-80
2021/12/11 05:21:40;;;;;;;57.58;14.35;;;;;;;;;;5062970;28;20020;-81
2021/12/11 05:24:06;;;;;;;47.47;14.30;;;;;;;;;;5065190;28;20101;-81
2021/12/11 05:26:36;;;;;;;46.67;13.70;;;;;;;;;;5061984;28;20028;-79
2021/12/11 05:29:03;;;;;;;48.42;13.23;;;;;;;;;;5062181;28;20028;-81
2021/12/11 05:31:29;;;;;;;32.45;11.43;;;;;;;;;;5058869;28;20047;-80
2021/12/11 05:33:56;;;;;;;38.80;10.85;;;;;;;;;;5064903;28;20214;-80
2021/12/11 05:36:23;;;;;;;30.88;11.77;;;;;;;;;;5061225;28;20048;-81
2021/12/11 05:38:49;;;;;;;23.80;11.23;;;;;;;;;;5042916;28;20089;-81
2021/12/11 05:41:18;;;;;;;26.92;13.23;;;;;;;;;;5061552;28;20042;-80
2021/12/11 05:43:45;;;;;;;27.77;14.60;;;;;;;;;;5050192;28;20028;-81
2021/12/11 05:46:13;;;;;;;34.65;14.38;;;;;;;;;;5067590;28;20020;-82
2021/12/11 05:48:40;;;;;;;42.60;16.95;;;;;;;;;;5057552;28;20113;-81
2021/12/11 05:51:07;;;;;;;41.85;13.52;;;;;;;;;;5048595;28;20021;-81
2021/12/11 05:53:34;;;;;;;49.20;15.77;;;;;;;;;;5049280;28;20030;-81
2021/12/11 05:56:06;;;;;;;41.25;13.57;;;;;;;;;;5065843;28;20051;-82
2021/12/11 05:58:46;;;;;;;35.33;10.27;;;;;;;;;;5066385;28;20032;-82
2021/12/11 06:01:14;;;;;;;36.20;11.07;;;;;;;;;;5060855;28;20024;-81
2021/12/11 06:03:40;;;;;;;32.33;12.55;;;;;;;;;;5053763;28;20025;-81
2021/12/11 06:06:08;;;;;;;46.20;11.63;;;;;;;;;;5067529;28;20143;-81
2021/12/11 06:08:35;;;;;;;24.80;9.63;;;;;;;;;;5065278;28;20017;-80
2021/12/11 06:11:04;;;;;;;30.30;10.48;;;;;;;;;;5060387;28;20039;-80
2021/12/11 06:13:30;;;;;;;29.73;10.27;;;;;;;;;;5065811;28;20029;-81
2021/12/11 06:15:58;;;;;;;26.63;11.20;;;;;;;;;;5041439;28;20167;-80
2021/12/11 06:18:24;;;;;;;36.45;12.68;;;;;;;;;;5061397;28;20477;-81
2021/12/11 06:20:51;;;;;;;32.05;12.57;;;;;;;;;;5060314;28;20032;-81
2021/12/11 06:23:18;;;;;;;38.35;14.55;;;;;;;;;;5063945;28;21055;-81
2021/12/11 06:25:44;;;;;;;27.25;13.25;;;;;;;;;;5062348;28;20387;-81
2021/12/11 06:28:12;;;;;;;34.40;13.25;;;;;;;;;;5059795;28;20021;-81
2021/12/11 06:30:39;;;;;;;29.40;13.25;;;;;;;;;;5061017;28;20024;-80
2021/12/11 06:33:05;;;;;;;21.95;12.35;;;;;;;;;;5058244;28;20119;-82
2021/12/11 06:35:50;;;;;;;24.25;13.02;;;;;;;;;;5057863;28;20404;-80
2021/12/11 06:38:19;;;;;;;24.23;12.05;;;;;;;;;;5062738;28;20028;-80
2021/12/11 06:40:45;;;;;;;22.52;10.98;;;;;;;;;;5045167;28;20060;-81
2021/12/11 06:43:12;;;;;;;23.30;10.10;;;;;;;;;;5066132;28;20025;-80
2021/12/11 06:45:39;;;;;;;17.70;9.15;;;;;;;;;;5057529;28;20499;-79
2021/12/11 06:48:05;;;;;;;23.60;11.82;;;;;;;;;;5062526;28;20044;-81
2021/12/11 06:50:32;;;;;;;28.00;11.60;;;;;;;;;;5062410;28;20037;-83
2021/12/11 06:53:00;;;;;;;30.42;14.02;;;;;;;;;;5060229;28;20055;-81
2021/12/11 06:55:27;;;;;;;34.17;14.15;;;;;;;;;;5062415;28;20403;-79
2021/12/11 06:57:53;;;;;;;30.30;14.40;;;;;;;;;;5059939;28;20121;-79
2021/12/11 07:00:21;;;;;;;35.40;12.65;;;;;;;;;;5062385;28;20025;-82
2021/12/11 07:02:48;;;;;;;43.53;11.90;;;;;;;;;;5062063;28;20040;-82
2021/12/11 07:05:14;;;;;;;41.20;10.27;;;;;;;;;;5043660;28;20020;-82
2021/12/11 07:07:42;;;;;;;32.38;12.25;;;;;;;;;;5063377;28;20048;-80
2021/12/11 07:10:10;;;;;;;29.90;12.60;;;;;;;;;;5066136;28;20469;-82
2021/12/11 07:12:36;;;;;;;28.58;11.90;;;;;;;;;;5065772;28;20046;-81
2021/12/11 07:15:04;;;;;;;21.77;11.40;;;;;;;;;;5065735;28;20031;-81
2021/12/11 07:17:31;;;;;;;31.75;15.95;;;;;;;;;;5064426;28;20512;-82
2021/12/11 07:19:57;;;;;;;32.72;16.08;;;;;;;;;;5063687;28;20101;-81
2021/12/11 07:55:23;;;;;;;30.10;9.20;;;;;;;;;;5034266;28;20067;-80
2021/12/11 07:57:50;;;;;;;29.10;10.10;;;;;;;;;;5062006;28;20025;-80
2021/12/11 08:00:21;;;;;;;31.63;10.82;;;;;;;;;;5049652;28;20376;-82
2021/12/11 08:02:48;;;;;;;25.27;9.02;;;;;;;;;;5066573;28;20070;-80
2021/12/11 08:05:14;;;;;;;29.42;9.82;;;;;;;;;;5064773;28;20016;-78
2021/12/11 08:07:41;;;;;;;19.30;8.02;;;;;;;;;;5050747;28;20067;-80
2021/12/11 08:10:10;;;;;;;19.88;8.25;;;;;;;;;;5045910;28;20445;-81
2021/12/11 08:12:37;;;;;;;21.30;8.65;;;;;;;;;;5057972;28;20033;-78
2021/12/11 08:15:05;;;;;;;21.17;9.50;;;;;;;;;;5038022;28;20112;-79
2021/12/11 08:17:31;;;;;;;24.35;9.07;;;;;;;;;;5063599;28;20024;-81
2021/12/11 08:19:58;;;;;;;25.27;9.38;;;;;;;;;;5070631;28;20028;-79
2021/12/11 08:22:25;;;;;;;31.70;9.50;;;;;;;;;;5071377;28;20106;-79
2021/12/11 08:24:51;;;;;;;26.73;9.32;;;;;;;;;;5075396;28;20032;-80
2021/12/11 08:27:20;;;;;;;29.73;11.32;;;;;;;;;;5075584;28;20025;-80
2021/12/11 08:29:47;;;;;;;22.30;9.38;;;;;;;;;;5067302;28;20036;-80
2021/12/11 08:32:14;;;;;;;26.63;10.23;;;;;;;;;;5062485;28;20020;-81
2021/12/11 08:34:41;;;;;;;21.60;9.57;;;;;;;;;;5052003;28;20493;-82
2021/12/11 08:37:08;;;;;;;20.58;8.43;;;;;;;;;;5070301;28;20025;-80
2021/12/11 08:39:35;;;;;;;25.00;9.98;;;;;;;;;;5062910;28;20040;-79
2021/12/11 08:42:04;;;;;;;29.70;9.93;;;;;;;;;;5062994;28;20020;-80
2021/12/11 08:44:35;;;;;;;33.53;10.20;;;;;;;;;;5045092;28;20020;-79
2021/12/11 08:47:03;;;;;;;28.90;9.93;;;;;;;;;;5070487;28;20109;-81
2021/12/11 08:49:32;;;;;;;38.38;12.85;;;;;;;;;;5059526;28;20067;-81
2021/12/11 08:52:02;;;;;;;31.05;12.13;;;;;;;;;;5044676;28;20021;-80
2021/12/11 08:54:33;;;;;;;32.72;11.45;;;;;;;;;;5052197;28;20037;-82
2021/12/11 08:57:04;;;;;;;22.90;9.18;;;;;;;;;;5046982;28;20021;-79
2021/12/11 08:59:31;;;;;;;26.95;10.65;;;;;;;;;;5026433;28;20025;-80
2021/12/11 09:02:04;;;;;;;23.08;10.05;;;;;;;;;;5044478;28;20507;-80
2021/12/11 09:04:40;;;;;;;22.35;10.15;;;;;;;;;;5046771;28;20020;-80
2021/12/11 09:07:13;;;;;;;27.50;10.55;;;;;;;;;;5027332;28;20467;-80
2021/12/11 09:09:45;;;;;;;25.55;11.10;;;;;;;;;;5042978;28;20029;-81
2021/12/11 09:12:31;;;;;;;23.92;9.82;;;;;;;;;;5043228;28;20559;-81
2021/12/11 09:15:01;;;;;;;16.95;9.15;;;;;;;;;;5048759;28;20017;-81
2021/12/11 09:17:33;;;;;;;16.45;9.15;;;;;;;;;;5046592;28;20048;-80
2021/12/11 09:20:04;;;;;;;27.02;10.45;;;;;;;;;;5028050;28;20526;-80
2021/12/11 09:22:34;;;;;;;18.58;8.55;;;;;;;;;;5044864;28;20072;-79
2021/12/11 09:25:07;;;;;;;18.98;8.20;;;;;;;;;;5027344;28;20079;-81
2021/12/11 09:27:44;;;;;;;23.33;8.40;;;;;;;;;;5043950;28;20028;-81
2021/12/11 09:30:16;;;;;;;20.75;9.00;;;;;;;;;;5045403;28;20116;-80
2021/12/11 09:32:42;;;;;;;27.17;8.77;;;;;;;;;;5045991;28;20759;-80
2021/12/11 09:35:11;;;;;;;21.13;8.32;;;;;;;;;;5045347;28;20384;-81
2021/12/11 09:37:39;;;;;;;27.73;9.57;;;;;;;;;;5043802;28;20404;-80
2021/12/11 09:40:18;;;;;;;25.10;9.20;;;;;;;;;;5048786;28;20033;-82
2021/12/11 09:42:44;;;;;;;24.35;8.75;;;;;;;;;;5002136;28;20037;-79
2021/12/11 09:45:17;;;;;;;22.80;8.70;;;;;;;;;;5044036;28;20022;-80
2021/12/11 09:47:50;;;;;;;20.23;9.18;;;;;;;;;;5037588;28;20029;-80
2021/12/11 09:50:19;;;;;;;21.33;7.93;;;;;;;;;;5045618;28;20493;-80
2021/12/11 09:52:46;;;;;;;18.23;7.07;;;;;;;;;;5044845;28;20121;-80
2021/12/11 09:55:16;;;;;;;19.95;8.57;;;;;;;;;;5056618;28;20143;-80
2021/12/11 09:57:44;;;;;;;19.58;8.50;;;;;;;;;;5068749;28;20032;-80
2021/12/11 10:00:19;;;;;;;20.67;9.05;;;;;;;;;;5067684;28;20078;-80
2021/12/11 10:02:46;;;;;;;21.55;8.10;;;;;;;;;;5066068;28;20459;-81
2021/12/11 10:05:34;;;;;;;22.67;8.57;;;;;;;;;;5066751;28;20321;-80
2021/12/11 10:08:32;;;;;;;20.27;8.25;;;;;;;;;;5065216;28;20476;-79
2021/12/11 10:11:08;;;;;;;17.85;8.70;;;;;;;;;;5063823;28;20029;-83
2021/12/11 10:13:36;;;;;;;20.58;10.07;;;;;;;;;;5062387;28;20029;-80
2021/12/11 10:16:02;;;;;;;25.80;10.90;;;;;;;;;;5069565;28;20379;-80
2021/12/11 10:18:30;;;;;;;23.17;10.93;;;;;;;;;;5060371;28;20494;-79
2021/12/11 10:21:02;;;;;;;29.38;11.95;;;;;;;;;;5063307;28;20059;-80
2021/12/11 10:23:31;;;;;;;25.48;11.98;;;;;;;;;;5055962;28;20017;-80
2021/12/11 10:25:59;;;;;;;30.00;11.65;;;;;;;;;;5068791;28;20017;-80
2021/12/11 10:28:28;;;;;;;28.00;11.50;;;;;;;;;;5061225;28;20523;-80
2021/12/11 10:30:56;;;;;;;21.02;10.85;;;;;;;;;;5058490;28;20031;-80
2021/12/11 10:33:25;;;;;;;19.88;11.05;;;;;;;;;;5061740;28;20029;-80
2021/12/11 10:35:53;;;;;;;26.10;12.18;;;;;;;;;;5069623;28;20025;-81
2021/12/11 10:38:20;;;;;;;24.30;12.60;;;;;;;;;;5064639;28;20031;-80
2021/12/11 10:40:49;;;;;;;30.55;14.13;;;;;;;;;;5064539;28;20067;-79
2021/12/11 10:43:19;;;;;;;25.83;14.82;;;;;;;;;;5063453;28;20105;-80
2021/12/11 10:45:46;;;;;;;33.53;15.70;;;;;;;;;;5066197;28;20031;-79
2021/12/11 10:48:16;;;;;;;30.95;16.65;;;;;;;;;;5061665;28;20020;-79
2021/12/11 10:50:47;;;;;;;30.80;16.00;;;;;;;;;;5065356;28;20024;-80
2021/12/11 10:53:15;;;;;;;25.48;14.90;;;;;;;;;;5063137;28;20025;-80
2021/12/11 10:55:42;;;;;;;28.50;15.25;;;;;;;;;;5070922;28;20040;-79
2021/12/11 10:58:15;;;;;;;29.67;14.77;;;;;;;;;;5066233;28;20031;-80
2021/12/11 11:00:50;;;;;;;26.30;14.30;;;;;;;;;;5072977;28;20040;-79
2021/12/11 11:03:17;;;;;;;29.13;15.27;;;;;;;;;;5068050;28;20396;-82
2021/12/11 11:05:43;;;;;;;25.40;14.82;;;;;;;;;;5066714;28;20020;-80
2021/12/11 11:08:11;;;;;;;34.72;18.45;;;;;;;;;;5065467;28;20033;-80
2021/12/11 11:10:39;;;;;;;31.23;16.15;;;;;;;;;;5071575;28;20029;-81
2021/12/11 11:13:09;;;;;;;28.42;16.63;;;;;;;;;;5069823;28;20033;-82
2021/12/11 11:15:37;;;;;;;29.92;17.92;;;;;;;;;;5068436;28;20028;-80
2021/12/11 11:18:04;;;;;;;34.90;17.48;;;;;;;;;;5054864;28;20518;-81
2021/12/11 11:20:47;;;;;;;38.58;19.83;;;;;;;;;;5067783;28;20483;-80
2021/12/11 11:23:13;;;;;;;47.60;21.55;;;;;;;;;;5046176;28;20078;-80
2021/12/11 11:25:41;;;;;;;47.47;24.25;;;;;;;;;;5065818;28;20100;-80
2021/12/11 11:28:12;;;;;;;53.80;28.13;;;;;;;;;;5067083;28;20084;-80
2021/12/11 11:30:40;;;;;;;46.35;26.73;;;;;;;;;;5047841;28;20579;-80
2021/12/11 11:33:07;;;;;;;65.50;33.80;;;;;;;;;;5061235;28;20067;-80
2021/12/11 11:35:38;;;;;;;81.65;44.38;;;;;;;;;;5068178;28;20479;-80
2021/12/11 11:38:06;;;;;;;76.22;41.45;;;;;;;;;;5061919;28;20479;-80
2021/12/11 11:40:34;;;;;;;90.32;51.72;;;;;;;;;;5064450;28;20488;-80
2021/12/11 11:43:00;;;;;;;88.47;51.03;;;;;;;;;;5065750;28;20117;-80
2021/12/11 11:45:27;;;;;;;79.43;46.55;;;;;;;;;;5046923;28;20028;-80
2021/12/11 11:47:54;;;;;;;74.07;43.03;;;;;;;;;;5067507;28;20070;-81
2021/12/11 11:50:27;;;;;;;80.70;42.45;;;;;;;;;;5064483;28;20028;-81
2021/12/11 11:52:54;;;;;;;65.68;39.90;;;;;;;;;;5072654;28;20379;-80
2021/12/11 11:55:23;;;;;;;67.60;37.30;;;;;;;;;;5070498;28;20036;-82
2021/12/11 11:57:50;;;;;;;57.75;35.03;;;;;;;;;;5065760;28;20106;-80
2021/12/11 12:00:23;;;;;;;61.33;34.05;;;;;;;;;;5065872;28;20025;-80
2021/12/11 12:02:50;;;;;;;63.40;37.95;;;;;;;;;;5067009;28;20104;-80
2021/12/11 12:05:19;;;;;;;70.53;41.08;;;;;;;;;;5071563;28;20025;-80
2021/12/11 12:07:46;;;;;;;75.55;43.67;;;;;;;;;;5067651;28;20086;-79
2021/12/11 12:10:15;;;;;;;73.00;43.83;;;;;;;;;;5069212;28;20082;-80
2021/12/11 12:12:42;;;;;;;65.95;41.58;;;;;;;;;;5064555;28;21313;-80
2021/12/11 12:15:10;;;;;;;77.18;44.25;;;;;;;;;;5048383;28;20640;-80
2021/12/11 12:17:37;;;;;;;72.95;43.47;;;;;;;;;;5064266;28;20206;-81
2021/12/11 12:20:05;;;;;;;77.60;44.00;;;;;;;;;;5068826;28;20070;-78
2021/12/11 12:22:32;;;;;;;71.70;43.60;;;;;;;;;;5061960;28;20031;-82
2021/12/11 12:24:58;;;;;;;74.20;43.25;;;;;;;;;;5067680;28;20043;-81
2021/12/11 12:27:27;;;;;;;82.00;46.13;;;;;;;;;;5061783;28;20033;-80
2021/12/11 12:29:54;;;;;;;77.93;43.75;;;;;;;;;;5071744;28;20033;-79
2021/12/11 12:32:26;;;;;;;76.03;42.85;;;;;;;;;;5060525;28;20040;-80
2021/12/11 12:34:54;;;;;;;81.28;45.58;;;;;;;;;;5044524;28;20033;-80
2021/12/11 12:37:21;;;;;;;71.90;44.85;;;;;;;;;;5060228;28;20037;-80
2021/12/11 12:39:49;;;;;;;79.60;45.13;;;;;;;;;;5068657;28;20035;-81
2021/12/11 12:42:37;;;;;;;70.10;42.55;;;;;;;;;;5062466;28;20071;-80
2021/12/11 12:45:18;;;;;;;96.53;50.58;;;;;;;;;;5063353;28;20420;-81
2021/12/11 12:47:46;;;;;;;89.63;50.55;;;;;;;;;;5071142;28;20024;-80
2021/12/11 12:50:19;;;;;;;88.40;52.63;;;;;;;;;;5052858;28;20032;-82
2021/12/11 12:52:46;;;;;;;92.13;54.58;;;;;;;;;;5052442;28;20028;-81
2021/12/11 12:55:15;;;;;;;109.32;61.25;;;;;;;;;;5068241;28;20033;-80
2021/12/11 12:57:43;;;;;;;96.07;57.75;;;;;;;;;;5045656;28;20042;-80
2021/12/11 13:00:17;;;;;;;94.07;58.10;;;;;;;;;;5061237;28;20091;-81
2021/12/11 13:02:44;;;;;;;98.13;59.85;;;;;;;;;;5043228;28;20024;-80
2021/12/11 13:05:16;;;;;;;129.18;68.35;;;;;;;;;;5044232;28;20024;-80
2021/12/11 13:07:43;;;;;;;111.68;65.00;;;;;;;;;;5064051;28;20029;-81
2021/12/11 13:10:12;;;;;;;113.72;64.85;;;;;;;;;;5068469;28;20087;-81
2021/12/11 13:12:41;;;;;;;109.03;63.92;;;;;;;;;;5069403;28;20032;-81
2021/12/11 13:15:11;;;;;;;105.85;60.35;;;;;;;;;;5066911;28;20468;-82
2021/12/11 13:17:40;;;;;;;104.30;59.28;;;;;;;;;;5054917;28;20025;-80
2021/12/11 13:20:10;;;;;;;100.13;57.30;;;;;;;;;;5062927;28;20544;-81
2021/12/11 13:22:43;;;;;;;106.72;58.47;;;;;;;;;;5046247;28;20506;-80
2021/12/11 13:25:14;;;;;;;98.60;55.28;;;;;;;;;;5047712;28;20387;-81
2021/12/11 13:27:41;;;;;;;102.93;53.92;;;;;;;;;;5045040;28;20036;-81
2021/12/11 13:30:10;;;;;;;94.60;50.45;;;;;;;;;;5064353;28;20071;-80
2021/12/11 13:32:37;;;;;;;96.70;50.15;;;;;;;;;;5049335;28;20024;-82
2021/12/11 13:35:06;;;;;;;73.97;44.75;;;;;;;;;;5065027;28;20033;-80
2021/12/11 13:37:33;;;;;;;84.28;49.22;;;;;;;;;;5069983;28;20028;-79
2021/12/11 13:40:04;;;;;;;82.10;45.08;;;;;;;;;;5042581;28;20032;-79
2021/12/11 13:42:31;;;;;;;85.78;47.25;;;;;;;;;;5067797;28;20038;-81
2021/12/11 13:45:05;;;;;;;88.70;50.88;;;;;;;;;;5060373;28;20105;-80
2021/12/11 13:47:32;;;;;;;101.40;56.15;;;;;;;;;;5067588;28;20016;-81
2021/12/11 13:49:59;;;;;;;97.35;53.70;;;;;;;;;;5067180;28;20414;-80
2021/12/11 13:52:26;;;;;;;109.45;58.35;;;;;;;;;;5069997;28;20017;-82
2021/12/11 13:54:52;;;;;;;103.93;63.13;;;;;;;;;;5053818;28;20110;-81
2021/12/11 13:57:25;;;;;;;117.38;67.57;;;;;;;;;;5072694;28;20024;-80
2021/12/11 13:59:56;;;;;;;128.13;69.07;;;;;;;;;;5072973;28;20506;-81
2021/12/11 14:02:23;;;;;;;127.97;71.70;;;;;;;;;;5070710;28;20514;-81
2021/12/11 14:04:50;;;;;;;124.63;71.53;;;;;;;;;;5066180;28;20025;-82
2021/12/11 14:07:20;;;;;;;126.55;70.72;;;;;;;;;;5069561;28;20055;-80
2021/12/11 14:09:55;;;;;;;119.22;64.68;;;;;;;;;;5068236;28;20040;-80
2021/12/11 14:12:23;;;;;;;117.00;65.82;;;;;;;;;;5056436;28;20070;-78
2021/12/11 14:14:50;;;;;;;123.43;63.80;;;;;;;;;;5062020;28;20025;-79
2021/12/11 14:17:17;;;;;;;114.90;66.03;;;;;;;;;;5066100;28;20029;-82
2021/12/11 14:19:45;;;;;;;124.38;69.90;;;;;;;;;;5059713;28;20033;-82
2021/12/11 14:22:13;;;;;;;118.28;66.40;;;;;;;;;;5064528;28;20127;-79
2021/12/11 14:24:42;;;;;;;115.93;68.35;;;;;;;;;;5057703;28;20029;-81
2021/12/11 14:27:13;;;;;;;118.38;61.80;;;;;;;;;;5059063;28;20464;-81
2021/12/11 14:29:45;;;;;;;106.07;62.08;;;;;;;;;;5044249;28;20036;-79
2021/12/11 14:32:17;;;;;;;116.50;62.67;;;;;;;;;;5061818;28;20037;-80
2021/12/11 14:34:44;;;;;;;116.93;63.40;;;;;;;;;;5060230;28;20115;-80
2021/12/11 14:37:11;;;;;;;114.05;63.08;;;;;;;;;;5061814;28;20020;-79
2021/12/11 14:39:39;;;;;;;102.93;60.20;;;;;;;;;;5063039;28;20029;-81
2021/12/11 14:42:06;;;;;;;89.80;51.60;;;;;;;;;;5061308;28;20070;-82
2021/12/11 14:44:33;;;;;;;87.28;52.38;;;;;;;;;;5062488;28;20044;-81
2021/12/11 14:47:03;;;;;;;96.78;52.53;;;;;;;;;;5045521;28;20029;-81
2021/12/11 14:49:30;;;;;;;87.90;51.58;;;;;;;;;;5066852;28;20025;-80
2021/12/11 14:51:57;;;;;;;91.57;50.28;;;;;;;;;;5054001;28;20037;-81
2021/12/11 14:54:24;;;;;;;89.07;50.42;;;;;;;;;;5059022;28;20041;-81
2021/12/11 14:56:51;;;;;;;93.18;50.63;;;;;;;;;;5040460;28;20031;-81
2021/12/11 14:59:24;;;;;;;92.28;50.53;;;;;;;;;;5063359;28;20048;-81
2021/12/11 15:01:56;;;;;;;84.38;48.53;;;;;;;;;;5059768;28;20025;-81
2021/12/11 15:04:26;;;;;;;81.55;47.47;;;;;;;;;;5044313;28;20367;-80
2021/12/11 15:06:52;;;;;;;82.40;45.35;;;;;;;;;;5055301;28;20058;-81
2021/12/11 15:09:19;;;;;;;95.95;50.30;;;;;;;;;;5036390;28;20024;-79
2021/12/11 15:11:46;;;;;;;98.35;53.50;;;;;;;;;;5065681;28;20492;-80
2021/12/11 15:14:15;;;;;;;93.00;48.97;;;;;;;;;;5056548;28;20492;-80
2021/12/11 15:16:42;;;;;;;93.70;47.03;;;;;;;;;;5056708;28;20194;-79